Time;durP1;ratioP1;P1;durP2;ratioP2;P2;SDS_P1;SDS_P2;PMS_P1;PMS_P2;Temp;Humidity;BMP_temperature;BMP_pressure;BME280_temperature;BME280_humidity;BME280_pressure;Samples;Min_cycle;Max_cycle;Signal;HPM_P1;HPM_P2
2022/08/11 00:02:07;;;;;;;2.10;1.60;;;;;;;22.47;nan;100959.38;5079423;28;20032;-64
2022/08/11 00:04:38;;;;;;;3.50;1.70;;;;;;;22.41;nan;100960.28;5083364;28;20029;-64
2022/08/11 00:07:05;;;;;;;2.75;1.65;;;;;;;22.33;nan;100964.03;5087610;28;20048;-63
2022/08/11 00:09:33;;;;;;;2.67;1.70;;;;;;;22.26;nan;100960.56;5086446;28;20055;-63
2022/08/11 00:11:59;;;;;;;2.17;1.50;;;;;;;22.18;nan;100961.63;5081461;28;20070;-63
2022/08/11 00:14:30;;;;;;;2.63;1.70;;;;;;;22.12;nan;100961.69;5083929;28;20119;-63
2022/08/11 00:17:00;;;;;;;3.20;1.70;;;;;;;22.05;nan;100959.06;5080426;28;20068;-63
2022/08/11 00:19:29;;;;;;;2.50;1.60;;;;;;;21.97;nan;100954.72;5076123;28;20650;-63
2022/08/11 00:21:55;;;;;;;3.30;1.85;;;;;;;21.93;nan;100958.06;5079246;28;20051;-63
2022/08/11 00:24:22;;;;;;;2.03;1.40;;;;;;;21.91;nan;100955.59;5080640;28;20032;-63
2022/08/11 00:26:50;;;;;;;2.75;1.70;;;;;;;21.94;nan;100957.03;5082131;28;20150;-63
2022/08/11 00:29:16;;;;;;;5.38;1.80;;;;;;;21.96;nan;100957.66;5075157;28;20094;-63
2022/08/11 00:31:49;;;;;;;2.70;1.80;;;;;;;21.97;nan;100956.59;5075881;28;20413;-63
2022/08/11 00:34:17;;;;;;;3.13;1.85;;;;;;;22.04;nan;100965.47;5080755;28;20386;-63
2022/08/11 00:36:54;;;;;;;2.47;1.60;;;;;;;22.03;nan;100959.25;5076108;28;20040;-63
2022/08/11 00:39:22;;;;;;;2.50;1.70;;;;;;;22.02;nan;100964.84;5078850;28;20044;-63
2022/08/11 00:42:15;;;;;;;5.20;1.70;;;;;;;22.01;nan;100966.72;5085161;28;20093;-63
2022/08/11 00:45:11;;;;;;;2.63;1.70;;;;;;;22.03;nan;100958.44;5079398;28;20489;-63
2022/08/11 00:47:54;;;;;;;3.75;2.00;;;;;;;22.05;nan;100951.78;5085038;28;20401;-63
2022/08/11 00:50:50;;;;;;;3.70;1.70;;;;;;;22.03;nan;100966.53;5079702;28;20032;-63
2022/08/11 00:53:34;;;;;;;4.72;2.13;;;;;;;22.05;nan;100961.75;5082001;28;20485;-64
2022/08/11 00:56:22;;;;;;;5.05;1.70;;;;;;;22.07;nan;100959.63;5081083;28;20048;-63
2022/08/11 00:59:00;;;;;;;2.85;1.77;;;;;;;22.05;nan;100953.66;5076912;28;20189;-63
2022/08/11 01:01:43;;;;;;;4.03;1.85;;;;;;;22.09;nan;100964.81;5082552;28;20093;-64
2022/08/11 01:04:20;;;;;;;2.75;1.80;;;;;;;22.09;nan;100954.03;5084005;28;20036;-63
2022/08/11 01:06:48;;;;;;;2.28;1.75;;;;;;;22.14;nan;100963.09;5080074;28;20422;-63
2022/08/11 01:09:23;;;;;;;2.92;1.83;;;;;;;22.10;nan;100959.22;5081140;28;20291;-63
2022/08/11 01:12:31;;;;;;;2.70;1.80;;;;;;;22.05;nan;100962.56;5085878;28;20040;-63
2022/08/11 01:15:13;;;;;;;2.33;1.70;;;;;;;22.02;nan;100967.53;5081159;28;20051;-64
2022/08/11 01:18:07;;;;;;;3.13;1.95;;;;;;;21.95;nan;100964.91;5078366;28;20052;-64
2022/08/11 01:21:06;;;;;;;4.32;1.83;;;;;;;21.84;nan;100976.34;5084271;28;20051;-63
2022/08/11 01:24:21;;;;;;;3.97;2.25;;;;;;;21.72;nan;100965.44;5084270;28;20038;-63
2022/08/11 01:26:59;;;;;;;2.85;1.70;;;;;;;21.63;nan;100964.84;5083476;28;20532;-63
2022/08/11 01:29:36;;;;;;;3.05;1.70;;;;;;;21.54;nan;100965.31;5087748;28;20063;-62
2022/08/11 01:32:23;;;;;;;3.55;1.73;;;;;;;21.47;nan;100970.72;5082283;28;20547;-62
2022/08/11 01:35:06;;;;;;;2.90;1.90;;;;;;;21.42;nan;100975.91;5085630;28;20040;-62
2022/08/11 01:37:54;;;;;;;1.95;1.58;;;;;;;21.30;nan;100970.34;5080774;28;20093;-62
2022/08/11 01:40:40;;;;;;;3.17;1.92;;;;;;;21.24;nan;100976.56;5075599;28;20033;-62
2022/08/11 01:46:26;;;;;;;2.55;1.70;;;;;;;21.02;nan;100977.84;5084809;28;20149;-63
2022/08/11 01:49:26;;;;;;;3.95;2.17;;;;;;;21.01;nan;100977.03;5082550;28;20032;-62
2022/08/11 01:52:14;;;;;;;2.95;1.83;;;;;;;20.98;nan;100972.06;5079828;28;20051;-62
2022/08/11 01:54:45;;;;;;;3.67;1.90;;;;;;;20.97;nan;100984.69;5084600;28;20222;-62
2022/08/11 01:57:16;;;;;;;2.72;1.80;;;;;;;20.93;nan;100972.72;5077922;28;20133;-62
2022/08/11 01:59:48;;;;;;;;;;;;;;;20.94;nan;100985.09;5084555;28;20028;-62
2022/08/11 02:02:57;;;;;;;2.65;1.83;;;;;;;20.91;nan;100987.41;5083631;28;19924;-63
2022/08/11 02:05:41;;;;;;;5.60;2.05;;;;;;;20.94;nan;100981.59;4979673;28;20031;-62
2022/08/11 02:08:21;;;;;;;3.55;1.92;;;;;;;20.93;nan;100978.09;4973458;28;20042;-62
2022/08/11 02:14:19;;;;;;;3.67;2.10;;;;;;;20.84;nan;100973.97;5079901;28;20454;-63
2022/08/11 02:17:14;;;;;;;2.97;1.80;;;;;;;20.76;nan;100976.84;5074775;28;20143;-62
2022/08/11 02:23:46;;;;;;;3.30;2.20;;;;;;;20.60;nan;100971.91;5011125;28;20089;-62
2022/08/11 02:26:19;;;;;;;3.55;1.80;;;;;;;20.58;nan;100972.94;4948081;28;20039;-63
2022/08/11 02:29:09;;;;;;;3.45;2.15;;;;;;;20.54;nan;100965.47;4977971;28;20043;-63
2022/08/11 02:34:36;;;;;;;3.75;1.95;;;;;;;20.50;nan;100965.06;5078144;28;20046;-63
2022/08/11 02:37:23;;;;;;;3.55;1.90;;;;;;;20.45;nan;100962.16;5082824;28;20188;-63
2022/08/11 02:39:57;;;;;;;3.83;1.95;;;;;;;20.45;nan;100959.47;5065445;28;20392;-63
2022/08/11 02:42:36;;;;;;;2.63;1.95;;;;;;;20.43;nan;100953.50;5082701;28;20040;-62
2022/08/11 02:45:10;;;;;;;3.58;1.77;;;;;;;20.41;nan;100952.03;5081845;28;20408;-63
2022/08/11 02:51:18;;;;;;;4.93;1.90;;;;;;;20.35;nan;100957.22;5076730;28;20063;-63
2022/08/11 02:53:54;;;;;;;3.33;2.10;;;;;;;20.34;nan;100960.09;5077465;28;20389;-63
2022/08/11 02:56:43;;;;;;;5.03;2.00;;;;;;;20.34;nan;100960.91;5081460;28;20492;-63
2022/08/11 02:59:50;;;;;;;3.30;2.00;;;;;;;20.30;nan;100964.22;5081120;28;20082;-63
2022/08/11 03:02:30;;;;;;;4.18;1.90;;;;;;;20.24;nan;100962.34;5043680;28;20032;-63
2022/08/11 03:05:12;;;;;;;3.50;1.98;;;;;;;20.19;nan;100956.75;5077676;28;20460;-63
2022/08/11 03:08:01;;;;;;;4.07;2.08;;;;;;;20.15;nan;100957.16;5077333;28;20553;-63
2022/08/11 03:16:57;;;;;;;3.70;2.20;;;;;;;20.19;nan;100952.22;5078185;28;20093;-63
2022/08/11 03:19:31;;;;;;;2.53;1.77;;;;;;;20.15;nan;100954.47;5082860;28;20568;-63
2022/08/11 03:22:42;;;;;;;3.08;1.70;;;;;;;20.13;nan;100958.41;5074502;28;20562;-63
2022/08/11 03:25:30;;;;;;;3.58;2.08;;;;;;;20.11;nan;100958.59;5041370;28;20032;-61
2022/08/11 03:28:20;;;;;;;3.25;2.00;;;;;;;20.07;nan;100960.06;5081825;28;20052;-62
2022/08/11 03:30:55;;;;;;;2.83;1.80;;;;;;;20.09;nan;100958.00;5074261;28;20417;-62
2022/08/11 03:37:00;;;;;;;3.72;2.13;;;;;;;20.05;nan;100959.44;5077451;28;20560;-62
2022/08/11 03:39:50;;;;;;;3.30;2.10;;;;;;;20.07;nan;100959.22;5077135;28;20047;-63
2022/08/11 03:42:19;;;;;;;2.42;1.83;;;;;;;20.05;nan;100962.13;5072923;28;20141;-63
2022/08/11 03:45:20;;;;;;;3.25;1.90;;;;;;;20.03;nan;100961.50;5080330;28;20060;-63
2022/08/11 03:48:19;;;;;;;3.45;1.92;;;;;;;20.02;nan;100970.59;5073093;28;20045;-63
2022/08/11 03:51:28;;;;;;;3.30;2.30;;;;;;;19.97;nan;100967.66;5079299;28;20040;-63
2022/08/11 03:54:00;;;;;;;2.85;1.90;;;;;;;19.92;nan;100965.56;5077255;28;20064;-63
2022/08/11 03:56:47;;;;;;;3.35;1.92;;;;;;;19.90;nan;100975.72;5076836;28;20063;-63
2022/08/11 03:59:21;;;;;;;3.97;2.15;;;;;;;19.88;nan;100968.91;5082953;28;20046;-63
2022/08/11 04:02:17;;;;;;;4.45;2.08;;;;;;;19.85;nan;100970.09;5082310;28;20413;-62
2022/08/11 04:04:57;;;;;;;3.38;2.03;;;;;;;19.81;nan;100970.75;5080727;28;20469;-62
2022/08/11 04:07:30;;;;;;;3.85;1.88;;;;;;;19.80;nan;100969.88;5080145;28;20040;-62
2022/08/11 04:10:16;;;;;;;3.10;2.15;;;;;;;19.78;nan;100973.81;5080018;28;20125;-63
2022/08/11 04:13:12;;;;;;;3.47;1.90;;;;;;;19.77;nan;100967.63;5082381;28;20109;-63
2022/08/11 04:16:09;;;;;;;3.63;2.03;;;;;;;19.75;nan;100968.84;5082943;28;20071;-63
2022/08/11 04:19:14;;;;;;;3.58;1.90;;;;;;;19.72;nan;100967.41;5048914;28;20047;-63
2022/08/11 04:22:05;;;;;;;3.10;2.13;;;;;;;19.70;nan;100974.81;5082952;28;20074;-62
2022/08/11 04:24:49;;;;;;;;;;;;;;;19.69;nan;100965.94;5084397;28;20397;-63
2022/08/11 04:27:45;;;;;;;3.90;2.17;;;;;;;19.69;nan;100962.44;5078775;28;20266;-62
2022/08/11 04:30:16;;;;;;;4.03;2.10;;;;;;;19.71;nan;100968.41;5082002;28;20115;-63
2022/08/11 04:32:47;;;;;;;4.20;2.28;;;;;;;19.68;nan;100960.75;5082326;28;20036;-63
2022/08/11 04:35:31;;;;;;;2.63;1.85;;;;;;;19.67;nan;100965.28;5085955;28;20382;-63
2022/08/11 04:38:15;;;;;;;2.03;1.67;;;;;;;19.64;nan;100964.84;5076721;28;20028;-62
2022/08/11 04:40:52;;;;;;;3.45;1.85;;;;;;;19.67;nan;100964.47;5084386;28;20044;-63
2022/08/11 04:43:45;;;;;;;3.65;2.30;;;;;;;19.69;nan;100967.81;5074105;28;20036;-63
2022/08/11 04:46:26;;;;;;;3.58;2.15;;;;;;;19.70;nan;100964.09;5079750;28;20720;-63
2022/08/11 05:01:41;;;;;;;2.63;2.00;;;;;;;19.78;nan;100971.94;5092741;28;20166;-62
2022/08/11 05:07:59;;;;;;;3.10;2.03;;;;;;;19.95;nan;100977.78;5081062;28;20051;-62
2022/08/11 05:10:36;;;;;;;3.35;2.00;;;;;;;20.00;nan;100978.00;5070185;28;20036;-62
2022/08/11 05:36:18;;;;;;;4.93;2.10;;;;;;;21.87;nan;100975.91;5075960;28;20098;-62
2022/08/11 05:58:35;;;;;;;3.22;1.90;;;;;;;23.98;nan;100991.41;5088649;28;20055;-63
2022/08/11 06:01:01;;;;;;;3.78;2.22;;;;;;;24.26;nan;100994.31;5092276;28;20471;-63
2022/08/11 06:03:28;;;;;;;10.93;5.85;;;;;;;24.44;nan;100998.00;5082867;28;20028;-64
2022/08/11 06:05:57;;;;;;;4.65;2.70;;;;;;;24.58;nan;100994.06;5071814;28;20366;-63
2022/08/11 06:08:31;;;;;;;3.65;2.00;;;;;;;24.84;nan;101002.75;5077467;28;20032;-64
2022/08/11 06:11:02;;;;;;;5.65;1.83;;;;;;;25.06;nan;101001.13;5090713;28;20110;-64
2022/08/11 06:13:28;;;;;;;3.33;1.80;;;;;;;25.13;nan;100995.59;5083681;28;20062;-64
2022/08/11 06:15:54;;;;;;;2.70;1.67;;;;;;;25.29;nan;100996.75;5070600;28;20537;-65
2022/08/11 06:18:20;;;;;;;4.88;1.92;;;;;;;25.34;nan;100999.59;5070759;28;20090;-64
2022/08/11 06:20:56;;;;;;;2.90;1.65;;;;;;;25.61;nan;100997.16;5098955;28;20502;-64
2022/08/11 06:23:29;;;;;;;8.32;1.98;;;;;;;25.85;nan;100997.91;5110325;28;20032;-63
2022/08/11 06:25:54;;;;;;;2.63;1.80;;;;;;;26.00;nan;101000.09;5103969;28;20032;-64
2022/08/11 06:28:30;;;;;;;2.25;1.63;;;;;;;26.25;nan;101005.19;5089376;28;20059;-64
2022/08/11 06:30:57;;;;;;;4.22;1.80;;;;;;;26.32;nan;101005.03;5088071;28;20394;-64
2022/08/11 06:33:54;;;;;;;6.30;3.60;;;;;;;26.53;nan;100998.88;5090313;28;20058;-64
2022/08/11 06:37:01;;;;;;;14.07;7.18;;;;;;;26.72;nan;101004.06;5050122;28;20358;-64
2022/08/11 06:39:49;;;;;;;20.83;10.05;;;;;;;27.00;nan;101000.41;5073269;28;20392;-64
2022/08/11 06:42:53;;;;;;;10.05;5.75;;;;;;;27.17;nan;101001.19;5088063;28;20044;-64
2022/08/11 06:45:56;;;;;;;5.03;2.70;;;;;;;27.15;nan;100999.78;5070610;28;20029;-63
2022/08/11 06:48:23;;;;;;;3.83;1.90;;;;;;;27.31;nan;100999.78;5090461;28;20040;-64
2022/08/11 06:51:13;;;;;;;3.95;1.70;;;;;;;27.48;nan;101004.34;5080623;28;20107;-64
2022/08/11 06:53:47;;;;;;;2.38;1.58;;;;;;;27.78;nan;101001.16;5088387;28;20563;-64
2022/08/11 07:02:05;;;;;;;4.18;1.60;;;;;;;28.52;nan;101000.56;5069963;28;20055;-64
2022/08/11 07:04:42;;;;;;;3.67;1.60;;;;;;;28.64;nan;100999.56;5080129;28;20036;-64
2022/08/11 07:15:58;;;;;;;2.38;1.52;;;;;;;29.28;nan;101013.03;5079229;28;20071;-63
2022/08/11 07:29:47;;;;;;;3.28;2.00;;;;;;;30.01;nan;100999.41;5080072;28;20356;-63
2022/08/11 07:32:18;;;;;;;6.32;2.20;;;;;;;30.10;nan;100991.50;5088258;28;20028;-64
2022/08/11 07:34:49;;;;;;;4.75;1.90;;;;;;;30.38;nan;100989.38;5076858;28;20523;-63
2022/08/11 07:37:19;;;;;;;3.72;1.70;;;;;;;30.25;nan;100988.00;5068855;28;20045;-63
2022/08/11 07:39:46;;;;;;;4.00;1.98;;;;;;;30.11;nan;100995.06;5079071;28;20032;-64
2022/08/11 07:42:15;;;;;;;2.92;1.88;;;;;;;30.30;nan;101001.66;5088511;28;20123;-63
2022/08/11 07:52:59;;;;;;;3.55;2.05;;;;;;;30.75;nan;100993.69;5088231;28;20147;-64
2022/08/11 07:55:30;;;;;;;3.67;1.83;;;;;;;31.07;nan;100994.19;5080378;28;20028;-64
2022/08/11 08:20:06;;;;;;;4.30;2.08;;;;;;;31.63;nan;101000.56;5083913;28;20078;-64
2022/08/11 08:22:34;;;;;;;2.78;1.70;;;;;;;31.86;nan;101002.63;5071867;28;20308;-64
2022/08/11 08:24:59;;;;;;;2.38;1.70;;;;;;;32.32;nan;100998.75;5103420;28;20032;-64
2022/08/11 08:27:25;;;;;;;4.43;1.52;;;;;;;32.63;nan;101004.81;5088298;28;20108;-64
2022/08/11 08:32:39;;;;;;;2.38;1.48;;;;;;;33.68;nan;101007.78;5091988;28;20143;-64
2022/08/11 08:35:06;;;;;;;4.22;1.70;;;;;;;33.87;nan;100988.56;5087483;28;20040;-64
2022/08/11 08:37:31;;;;;;;3.10;1.50;;;;;;;33.63;nan;101003.19;5087964;28;20541;-64
2022/08/11 08:39:57;;;;;;;3.22;1.60;;;;;;;34.17;nan;100990.03;5082849;28;20048;-65
2022/08/11 08:42:26;;;;;;;2.17;1.35;;;;;;;35.17;nan;100994.34;5097293;28;20028;-65
2022/08/11 08:45:00;;;;;;;2.47;1.65;;;;;;;35.45;nan;100993.19;5067708;28;20086;-65
2022/08/11 08:47:28;;;;;;;3.88;1.67;;;;;;;35.58;nan;100990.72;5082504;28;20043;-65
2022/08/11 08:50:00;;;;;;;3.75;1.40;;;;;;;35.42;nan;100987.47;5079759;28;20126;-65
2022/08/11 08:52:29;;;;;;;2.03;1.50;;;;;;;35.81;nan;100983.34;5082580;28;20072;-65
2022/08/11 08:55:01;;;;;;;4.18;1.63;;;;;;;36.33;nan;100994.78;5086412;28;20296;-64
2022/08/11 08:57:28;;;;;;;4.53;1.67;;;;;;;36.34;nan;100994.44;5087955;28;20109;-64
2022/08/11 08:59:56;;;;;;;3.60;1.63;;;;;;;36.02;nan;100989.16;5089254;28;20519;-64
2022/08/11 09:02:24;;;;;;;3.60;1.60;;;;;;;35.46;nan;100996.75;5096936;28;21206;-64
2022/08/11 09:04:50;;;;;;;5.32;1.90;;;;;;;35.23;nan;100998.59;5089301;28;20032;-64
2022/08/11 09:07:17;;;;;;;2.58;1.40;;;;;;;35.50;nan;100989.50;5073144;28;20036;-64
2022/08/11 09:09:49;;;;;;;5.00;1.60;;;;;;;35.95;nan;101003.38;5089069;28;20035;-64
2022/08/11 09:12:18;;;;;;;2.35;1.63;;;;;;;36.06;nan;100995.66;5085136;28;20020;-64
2022/08/11 09:14:59;;;;;;;3.67;1.65;;;;;;;36.13;nan;100987.81;5091740;28;20032;-64
2022/08/11 09:17:26;;;;;;;2.92;1.48;;;;;;;36.35;nan;100981.47;5089517;28;20046;-64
2022/08/11 09:20:06;;;;;;;2.00;1.50;;;;;;;36.64;nan;100986.53;5090678;28;20540;-65
2022/08/11 09:28:13;;;;;;;4.13;1.55;;;;;;;37.09;nan;100993.84;5088180;28;20405;-65
2022/08/11 09:30:41;;;;;;;2.80;1.60;;;;;;;37.16;nan;100996.97;5094567;28;20116;-64
2022/08/11 09:33:11;;;;;;;2.50;1.40;;;;;;;37.17;nan;100991.13;5094855;28;20501;-64
2022/08/11 09:35:42;;;;;;;2.00;1.33;;;;;;;37.52;nan;100982.94;5107547;28;20093;-64
2022/08/11 09:40:53;;;;;;;2.25;1.42;;;;;;;38.08;nan;100982.31;5089863;28;20388;-65
2022/08/11 09:46:05;;;;;;;2.58;1.55;;;;;;;38.28;nan;100983.56;5074981;28;20303;-65
2022/08/11 09:48:44;;;;;;;2.67;1.30;;;;;;;38.28;nan;100975.28;5079577;28;20036;-64
2022/08/11 09:51:11;;;;;;;3.45;1.27;;;;;;;38.35;nan;100975.59;5103407;28;20480;-64
2022/08/11 09:53:39;;;;;;;2.72;1.63;;;;;;;38.25;nan;100993.34;5091292;28;20117;-64
2022/08/11 09:58:54;;;;;;;4.57;1.80;;;;;;;37.38;nan;100990.53;5089168;28;20246;-63
2022/08/11 10:01:26;;;;;;;1.95;1.27;;;;;;;37.34;nan;100982.09;5090135;28;20457;-64
2022/08/11 10:04:00;;;;;;;1.67;1.17;;;;;;;38.27;nan;100968.16;5088623;28;20044;-64
2022/08/11 10:07:13;;;;;;;2.10;1.48;;;;;;;38.51;nan;100962.91;5089623;28;20035;-64
2022/08/11 10:09:20;;;;;;;2.95;1.40;;;;;;;38.24;nan;100975.97;5078563;28;20672;-64
2022/08/11 10:11:47;;;;;;;1.60;1.27;;;;;;;38.69;nan;100969.19;5090792;28;20052;-64
2022/08/11 10:17:04;;;;;;;3.45;1.50;;;;;;;38.21;nan;100965.56;5070989;28;20039;-64
2022/08/11 10:19:32;;;;;;;2.67;1.33;;;;;;;38.27;nan;100965.41;5089267;28;20555;-64
2022/08/11 10:27:27;;;;;;;3.50;1.20;;;;;;;38.64;nan;100959.13;5109945;28;20046;-64
2022/08/11 10:35:25;;;;;;;5.00;1.40;;;;;;;39.74;nan;100947.22;5082374;28;20044;-65
2022/08/11 10:37:52;;;;;;;2.28;1.30;;;;;;;39.19;nan;100953.81;5086820;28;20028;-64
2022/08/11 10:40:23;;;;;;;2.45;1.50;;;;;;;39.45;nan;100937.03;5079697;28;20301;-64
2022/08/11 10:43:01;;;;;;;4.18;1.40;;;;;;;39.34;nan;100933.84;5087407;28;20032;-64
2022/08/11 10:48:15;;;;;;;4.00;1.60;;;;;;;39.35;nan;100934.66;5072272;28;20047;-64
2022/08/11 10:59:00;;;;;;;2.45;1.48;;;;;;;39.23;nan;100933.44;5079507;28;20035;-64
2022/08/11 11:01:30;;;;;;;2.17;1.30;;;;;;;40.18;nan;100924.66;5068127;28;20037;-64
2022/08/11 11:04:11;;;;;;;4.68;1.73;;;;;;;41.11;nan;100947.97;5069082;28;20041;-64
2022/08/11 11:07:02;;;;;;;2.90;1.63;;;;;;;40.22;nan;100914.50;5067566;28;20036;-64
2022/08/11 11:09:33;;;;;;;2.65;1.48;;;;;;;40.82;nan;100917.72;5082497;28;20511;-64
2022/08/11 11:18:00;;;;;;;2.50;1.48;;;;;;;39.89;nan;100901.50;5068332;28;20106;-64
2022/08/11 11:20:38;;;;;;;2.70;1.70;;;;;;;40.00;nan;100905.47;5067580;28;20048;-64
2022/08/11 11:23:07;;;;;;;3.03;1.50;;;;;;;39.51;nan;100902.50;5083363;28;20036;-64
2022/08/11 11:26:05;;;;;;;4.53;1.47;;;;;;;39.45;nan;100895.53;5108474;28;20114;-64
2022/08/11 11:29:00;;;;;;;2.03;1.42;;;;;;;40.02;nan;100894.03;5097855;28;20050;-64
2022/08/11 11:31:37;;;;;;;3.78;1.27;;;;;;;40.74;nan;100894.50;5088884;28;20042;-64
2022/08/11 11:34:22;;;;;;;2.92;1.50;;;;;;;40.34;nan;100886.84;5075304;28;20325;-65
2022/08/11 11:36:59;;;;;;;2.70;1.40;;;;;;;40.39;nan;100885.81;5067843;28;20465;-65
2022/08/11 11:39:30;;;;;;;2.28;1.20;;;;;;;40.27;nan;100881.88;5082939;28;20036;-64
2022/08/11 11:41:56;;;;;;;;;;;;;;;40.75;nan;100885.81;5089067;28;20552;-64
2022/08/11 11:44:23;;;;;;;2.65;1.40;;;;;;;40.10;nan;100868.22;5087053;28;20236;-64
2022/08/11 11:46:49;;;;;;;2.03;1.40;;;;;;;41.49;nan;100879.28;5088702;28;20062;-64
2022/08/11 11:49:21;;;;;;;2.40;1.30;;;;;;;42.50;nan;100866.91;5068690;28;20139;-64
2022/08/11 11:51:51;;;;;;;2.20;1.35;;;;;;;42.99;nan;100862.88;5084370;28;20553;-64
2022/08/11 11:54:24;;;;;;;1.73;1.30;;;;;;;43.59;nan;100854.13;5067383;28;20036;-65
2022/08/11 11:56:52;;;;;;;2.65;1.50;;;;;;;44.00;nan;100848.91;5072037;28;20043;-64
2022/08/11 12:02:05;;;;;;;2.30;1.60;;;;;;;42.97;nan;100842.94;5081112;28;20047;-65
2022/08/11 12:04:30;;;;;;;3.20;1.60;;;;;;;42.23;nan;100841.63;5070625;28;20055;-65
2022/08/11 12:08:11;;;;;;;4.30;1.50;;;;;;;42.41;nan;100830.16;5065942;28;20082;-65
2022/08/11 12:09:45;;;;;;;3.28;1.50;;;;;;;41.36;nan;100848.81;5086345;28;20039;-65
2022/08/11 12:14:55;;;;;;;2.63;1.20;;;;;;;40.86;nan;100839.03;5067704;28;20043;-65
2022/08/11 12:17:21;;;;;;;2.85;1.48;;;;;;;40.61;nan;100834.63;5067374;28;20028;-65
2022/08/11 12:19:48;;;;;;;3.67;1.70;;;;;;;40.22;nan;100826.66;5070333;28;20552;-65
2022/08/11 12:27:41;;;;;;;2.58;1.50;;;;;;;38.67;nan;100811.16;5068010;28;20293;-65
2022/08/11 12:30:09;;;;;;;2.75;1.58;;;;;;;38.25;nan;100811.84;5070142;28;20150;-65
2022/08/11 12:32:37;;;;;;;2.40;1.42;;;;;;;37.78;nan;100813.78;5067968;28;20040;-64
2022/08/11 12:35:04;;;;;;;2.75;1.52;;;;;;;37.26;nan;100802.78;5073649;28;20036;-65
2022/08/11 12:37:31;;;;;;;4.35;1.50;;;;;;;36.77;nan;100809.25;5102572;28;20044;-64
2022/08/11 12:45:31;;;;;;;3.50;1.30;;;;;;;35.89;nan;100789.94;5094422;28;20082;-65
2022/08/11 12:54:07;;;;;;;2.38;1.60;;;;;;;34.61;nan;100780.03;5090413;28;20043;-65
2022/08/11 13:05:01;;;;;;;2.05;1.50;;;;;;;34.17;nan;100769.66;5089553;28;20050;-64
2022/08/11 13:07:29;;;;;;;3.03;1.65;;;;;;;33.50;nan;100768.06;5090505;28;20035;-64
2022/08/11 13:09:56;;;;;;;2.47;1.48;;;;;;;33.69;nan;100761.75;5070981;28;20084;-64
2022/08/11 13:15:12;;;;;;;2.70;1.50;;;;;;;33.65;nan;100763.47;5070557;28;20043;-64
2022/08/11 13:17:40;;;;;;;3.05;1.50;;;;;;;33.69;nan;100757.06;5071482;28;20040;-65
2022/08/11 13:20:08;;;;;;;3.42;1.85;;;;;;;33.78;nan;100752.53;5070665;28;20040;-65
2022/08/11 13:22:35;;;;;;;2.38;1.60;;;;;;;33.71;nan;100754.84;5092793;28;20032;-64
2022/08/11 13:25:03;;;;;;;3.70;1.70;;;;;;;33.61;nan;100766.00;5079148;28;20143;-64
2022/08/11 13:27:29;;;;;;;2.85;1.50;;;;;;;33.29;nan;100750.31;5078994;28;20043;-64
2022/08/11 13:31:09;;;;;;;1.80;1.60;;;;;;;33.17;nan;100746.13;5093449;28;20119;-64
2022/08/11 13:32:43;;;;;;;4.35;1.90;;;;;;;33.04;nan;100741.41;5072029;28;20090;-65
2022/08/11 13:35:13;;;;;;;3.15;1.55;;;;;;;33.02;nan;100746.34;5077857;28;20500;-65
2022/08/11 13:37:40;;;;;;;3.42;1.40;;;;;;;32.66;nan;100743.31;5088050;28;20032;-64
2022/08/11 13:40:07;;;;;;;3.10;1.70;;;;;;;32.65;nan;100744.41;5082424;28;20512;-65
2022/08/11 13:42:32;;;;;;;2.92;1.65;;;;;;;32.66;nan;100754.25;5106771;28;20036;-65
2022/08/11 13:44:58;;;;;;;2.78;1.60;;;;;;;32.62;nan;100748.53;5107313;28;20087;-64
2022/08/11 13:47:25;;;;;;;5.32;1.80;;;;;;;32.48;nan;100745.69;5089951;28;20039;-64
2022/08/11 13:49:51;;;;;;;3.65;1.73;;;;;;;32.33;nan;100732.19;5089935;28;20279;-64
2022/08/11 13:52:18;;;;;;;2.63;1.60;;;;;;;32.16;nan;100736.22;5089104;28;20285;-64
2022/08/11 13:54:47;;;;;;;2.72;1.58;;;;;;;32.01;nan;100730.91;5089531;28;20032;-64
2022/08/11 13:57:14;;;;;;;2.95;1.73;;;;;;;32.14;nan;100730.22;5092892;28;20443;-65
2022/08/11 13:59:45;;;;;;;3.75;1.90;;;;;;;32.28;nan;100727.59;5109726;28;20522;-64
2022/08/11 14:02:17;;;;;;;2.78;1.70;;;;;;;32.17;nan;100726.09;5102109;28;20043;-64
2022/08/11 14:04:55;;;;;;;2.88;1.60;;;;;;;32.27;nan;100711.47;5089549;28;20024;-64
2022/08/11 14:07:23;;;;;;;1.98;1.55;;;;;;;32.20;nan;100716.47;5089519;28;20036;-65
2022/08/11 14:09:55;;;;;;;5.05;1.70;;;;;;;32.31;nan;100707.03;5088964;28;20036;-65
2022/08/11 14:15:18;;;;;;;4.78;1.70;;;;;;;32.29;nan;100718.28;5088468;28;20039;-65
2022/08/11 14:17:50;;;;;;;4.20;1.52;;;;;;;32.16;nan;100708.06;5089581;28;20128;-64
2022/08/11 14:20:19;;;;;;;4.03;1.88;;;;;;;32.10;nan;100703.75;5089288;28;20050;-65
2022/08/11 14:22:45;;;;;;;3.00;1.50;;;;;;;32.13;nan;100701.25;5085455;28;20108;-65
2022/08/11 14:25:16;;;;;;;2.03;1.40;;;;;;;32.21;nan;100694.31;5109792;28;20508;-64
2022/08/11 14:27:48;;;;;;;;;;;;;;;32.12;nan;100682.38;5094823;28;20028;-64
2022/08/11 14:30:54;;;;;;;2.65;1.40;;;;;;;32.14;nan;100680.97;5089126;28;20003;-65
2022/08/11 14:33:00;;;;;;;2.90;1.80;;;;;;;32.20;nan;100683.66;5089587;28;20074;-64
2022/08/11 14:35:26;;;;;;;3.65;1.42;;;;;;;32.21;nan;100679.81;5089565;28;20581;-64
2022/08/11 14:37:52;;;;;;;3.95;1.67;;;;;;;32.35;nan;100681.53;5089015;28;20085;-64
2022/08/11 14:48:30;;;;;;;2.30;1.38;;;;;;;32.19;nan;100668.34;5107977;28;20054;-64
2022/08/11 14:50:57;;;;;;;2.47;1.50;;;;;;;32.13;nan;100673.88;5109471;28;20032;-65
2022/08/11 14:53:22;;;;;;;2.03;1.42;;;;;;;32.18;nan;100675.75;5109086;28;20556;-64
2022/08/11 14:58:33;;;;;;;3.03;1.52;;;;;;;32.12;nan;100668.69;5086775;28;20038;-65
2022/08/11 15:01:01;;;;;;;2.08;1.40;;;;;;;32.20;nan;100654.34;5087635;28;20466;-64
2022/08/11 15:03:29;;;;;;;3.38;1.55;;;;;;;32.21;nan;100657.94;5107798;28;20055;-64
2022/08/11 15:05:57;;;;;;;2.35;1.42;;;;;;;32.16;nan;100662.34;5111450;28;20231;-65
2022/08/11 15:14:04;;;;;;;2.08;1.40;;;;;;;32.10;nan;100657.22;5094094;28;20043;-64
2022/08/11 15:19:18;;;;;;;2.63;1.77;;;;;;;31.84;nan;100652.03;5070281;28;20090;-65
2022/08/11 15:24:27;;;;;;;1.95;1.50;;;;;;;32.00;nan;100654.63;5089545;28;20531;-64
2022/08/11 15:38:01;;;;;;;1.92;1.40;;;;;;;31.89;nan;100632.84;5073546;28;20047;-64
2022/08/11 15:46:13;;;;;;;3.38;1.70;;;;;;;31.91;nan;100638.81;5087478;28;20089;-63
2022/08/11 15:49:07;;;;;;;3.38;1.55;;;;;;;32.66;nan;100639.25;5082798;28;20040;-64
2022/08/11 15:51:36;;;;;;;3.42;1.70;;;;;;;34.18;nan;100636.78;5079813;28;20547;-64
2022/08/11 15:54:08;;;;;;;2.50;1.70;;;;;;;35.67;nan;100643.06;5078866;28;20474;-65
2022/08/11 15:56:37;;;;;;;2.05;1.50;;;;;;;36.27;nan;100635.28;5089842;28;20043;-64
2022/08/11 16:04:10;;;;;;;2.80;1.63;;;;;;;35.72;nan;100625.59;5081459;28;20039;-64
2022/08/11 16:04:58;;;;;;;2.83;1.58;;;;;;;35.09;nan;100633.84;5076460;28;20071;-64
2022/08/11 16:07:28;;;;;;;3.38;1.27;;;;;;;34.03;nan;100627.72;5074188;28;20040;-66
2022/08/11 16:10:03;;;;;;;7.00;1.80;;;;;;;33.58;nan;100627.56;5076667;28;20131;-65
2022/08/11 16:12:31;;;;;;;3.17;1.50;;;;;;;33.11;nan;100623.19;5082688;28;20038;-65
2022/08/11 16:17:52;;;;;;;2.00;1.45;;;;;;;33.28;nan;100617.16;5090506;28;20054;-65
2022/08/11 16:20:23;;;;;;;2.53;1.20;;;;;;;32.96;nan;100608.59;5075614;28;20035;-65
2022/08/11 16:22:51;;;;;;;2.25;1.58;;;;;;;33.12;nan;100611.94;5091935;28;20420;-65
2022/08/11 16:25:21;;;;;;;4.13;1.48;;;;;;;32.85;nan;100601.69;5093605;28;20048;-65
2022/08/11 16:27:50;;;;;;;2.90;1.60;;;;;;;32.53;nan;100616.97;5076809;28;20040;-65
2022/08/11 16:30:16;;;;;;;3.95;1.70;;;;;;;32.12;nan;100605.78;5085970;28;20658;-65
2022/08/11 16:32:51;;;;;;;4.88;1.63;;;;;;;32.03;nan;100604.81;5092261;28;20127;-65
2022/08/11 16:41:00;;;;;;;2.92;1.80;;;;;;;31.64;nan;100600.34;5054933;28;20055;-65
2022/08/11 16:49:07;;;;;;;3.88;1.70;;;;;;;31.42;nan;100588.00;5083938;28;20074;-64
2022/08/11 16:51:32;;;;;;;3.50;1.60;;;;;;;31.36;nan;100597.31;5077377;28;20036;-65
2022/08/11 16:53:58;;;;;;;3.00;1.30;;;;;;;31.45;nan;100592.88;5081915;28;20032;-64
2022/08/11 16:56:32;;;;;;;2.60;1.55;;;;;;;32.01;nan;100596.06;5087357;28;20036;-65
2022/08/11 16:59:13;;;;;;;3.30;1.50;;;;;;;32.06;nan;100598.72;5078708;28;20032;-65
2022/08/11 17:01:52;;;;;;;2.05;1.40;;;;;;;32.03;nan;100589.19;5074947;28;20032;-65